sensor_id;sensor_type;location;lat;lon;timestamp;pressure;altitude;pressure_sealevel;temperature;humidity
12211;BME280;6168;42.658;23.298;2023-09-19T00:02:05;61284.97;;;-139.92;100.00
12211;BME280;6168;42.658;23.298;2023-09-19T00:04:35;61280.81;;;-139.92;100.00
12211;BME280;6168;42.658;23.298;2023-09-19T00:07:04;61284.97;;;-139.92;100.00
12211;BME280;6168;42.658;23.298;2023-09-19T00:09:31;61299.53;;;-139.92;100.00
12211;BME280;6168;42.658;23.298;2023-09-19T00:12:02;61272.50;;;-139.92;100.00
12211;BME280;6168;42.658;23.298;2023-09-19T00:14:28;61289.13;;;-139.92;100.00
12211;BME280;6168;42.658;23.298;2023-09-19T00:16:55;61287.06;;;-139.92;100.00
12211;BME280;6168;42.658;23.298;2023-09-19T00:19:22;61297.47;;;-139.92;100.00
12211;BME280;6168;42.658;23.298;2023-09-19T00:21:50;61299.53;;;-139.92;100.00
12211;BME280;6168;42.658;23.298;2023-09-19T00:24:18;61297.47;;;-139.92;100.00
12211;BME280;6168;42.658;23.298;2023-09-19T00:26:44;61293.28;;;-139.92;100.00
12211;BME280;6168;42.658;23.298;2023-09-19T00:29:12;61293.28;;;-139.92;100.00
12211;BME280;6168;42.658;23.298;2023-09-19T00:31:42;61318.25;;;-139.92;100.00
12211;BME280;6168;42.658;23.298;2023-09-19T00:34:09;61339.06;;;-139.92;100.00
12211;BME280;6168;42.658;23.298;2023-09-19T00:36:36;61320.34;;;-139.92;100.00
12211;BME280;6168;42.658;23.298;2023-09-19T00:39:05;61305.78;;;-139.92;100.00
12211;BME280;6168;42.658;23.298;2023-09-19T00:41:33;61322.41;;;-139.92;100.00
12211;BME280;6168;42.658;23.298;2023-09-19T00:44:01;61320.34;;;-139.92;100.00
12211;BME280;6168;42.658;23.298;2023-09-19T00:46:28;61339.06;;;-139.92;100.00
12211;BME280;6168;42.658;23.298;2023-09-19T00:48:54;61334.91;;;-139.92;100.00
12211;BME280;6168;42.658;23.298;2023-09-19T00:51:22;61297.47;;;-139.92;100.00
12211;BME280;6168;42.658;23.298;2023-09-19T00:53:50;61326.59;;;-139.92;100.00
12211;BME280;6168;42.658;23.298;2023-09-19T00:56:19;61332.81;;;-139.92;100.00
12211;BME280;6168;42.658;23.298;2023-09-19T00:58:46;61347.38;;;-139.92;100.00
12211;BME280;6168;42.658;23.298;2023-09-19T01:01:12;61351.56;;;-139.92;100.00
12211;BME280;6168;42.658;23.298;2023-09-19T01:03:40;61349.47;;;-139.92;100.00
12211;BME280;6168;42.658;23.298;2023-09-19T01:06:06;61353.63;;;-139.92;100.00
12211;BME280;6168;42.658;23.298;2023-09-19T01:08:34;61353.63;;;-139.92;100.00
12211;BME280;6168;42.658;23.298;2023-09-19T01:11:03;61351.56;;;-139.92;100.00
12211;BME280;6168;42.658;23.298;2023-09-19T01:13:38;61343.22;;;-139.92;100.00
12211;BME280;6168;42.658;23.298;2023-09-19T01:16:10;61349.47;;;-139.92;100.00
12211;BME280;6168;42.658;23.298;2023-09-19T01:18:47;61359.88;;;-139.92;100.00
12211;BME280;6168;42.658;23.298;2023-09-19T01:21:19;61370.28;;;-139.92;100.00
12211;BME280;6168;42.658;23.298;2023-09-19T01:26:35;61351.56;;;-139.92;100.00
12211;BME280;6168;42.658;23.298;2023-09-19T01:29:17;61384.84;;;-139.92;100.00
12211;BME280;6168;42.658;23.298;2023-09-19T01:31:49;61391.09;;;-139.92;100.00
12211;BME280;6168;42.658;23.298;2023-09-19T01:34:19;61353.63;;;-139.92;100.00
12211;BME280;6168;42.658;23.298;2023-09-19T01:36:45;61359.88;;;-139.92;100.00
12211;BME280;6168;42.658;23.298;2023-09-19T01:39:12;61372.34;;;-139.92;100.00
12211;BME280;6168;42.658;23.298;2023-09-19T01:41:49;61366.13;;;-139.92;100.00
12211;BME280;6168;42.658;23.298;2023-09-19T01:44:19;61351.56;;;-139.92;100.00
12211;BME280;6168;42.658;23.298;2023-09-19T01:46:49;61384.84;;;-139.92;100.00
12211;BME280;6168;42.658;23.298;2023-09-19T01:49:20;61374.44;;;-139.92;100.00
12211;BME280;6168;42.658;23.298;2023-09-19T01:51:51;61389.00;;;-139.92;100.00
12211;BME280;6168;42.658;23.298;2023-09-19T01:54:22;61364.03;;;-139.92;100.00
12211;BME280;6168;42.658;23.298;2023-09-19T01:56:54;61357.78;;;-139.92;100.00
12211;BME280;6168;42.658;23.298;2023-09-19T01:59:24;61374.44;;;-139.92;100.00
12211;BME280;6168;42.658;23.298;2023-09-19T02:01:54;61364.03;;;-139.92;100.00
12211;BME280;6168;42.658;23.298;2023-09-19T02:04:21;61361.94;;;-139.92;100.00
12211;BME280;6168;42.658;23.298;2023-09-19T02:06:48;61328.66;;;-139.92;100.00
12211;BME280;6168;42.658;23.298;2023-09-19T02:09:15;61347.38;;;-139.92;100.00
12211;BME280;6168;42.658;23.298;2023-09-19T02:11:42;61366.13;;;-139.92;100.00
12211;BME280;6168;42.658;23.298;2023-09-19T02:14:08;61389.00;;;-139.92;100.00
12211;BME280;6168;42.658;23.298;2023-09-19T02:16:35;61366.13;;;-139.92;100.00
12211;BME280;6168;42.658;23.298;2023-09-19T02:19:04;61359.88;;;-139.92;100.00
12211;BME280;6168;42.658;23.298;2023-09-19T02:21:31;61391.09;;;-139.92;100.00
12211;BME280;6168;42.658;23.298;2023-09-19T02:23:58;61386.91;;;-139.92;100.00
12211;BME280;6168;42.658;23.298;2023-09-19T02:26:25;61351.56;;;-139.92;100.00
12211;BME280;6168;42.658;23.298;2023-09-19T02:28:52;61347.38;;;-139.92;100.00
12211;BME280;6168;42.658;23.298;2023-09-19T02:31:19;61376.50;;;-139.92;100.00
12211;BME280;6168;42.658;23.298;2023-09-19T02:33:45;61380.69;;;-139.92;100.00
12211;BME280;6168;42.658;23.298;2023-09-19T02:36:14;61378.59;;;-139.92;100.00
12211;BME280;6168;42.658;23.298;2023-09-19T02:38:42;61386.91;;;-139.92;100.00
12211;BME280;6168;42.658;23.298;2023-09-19T02:41:09;61366.13;;;-139.92;100.00
12211;BME280;6168;42.658;23.298;2023-09-19T02:43:35;61376.50;;;-139.92;100.00
12211;BME280;6168;42.658;23.298;2023-09-19T02:46:02;61376.50;;;-139.92;100.00
12211;BME280;6168;42.658;23.298;2023-09-19T02:48:29;61368.19;;;-139.92;100.00
12211;BME280;6168;42.658;23.298;2023-09-19T02:50:57;61382.75;;;-139.92;100.00
12211;BME280;6168;42.658;23.298;2023-09-19T02:53:25;61374.44;;;-139.92;100.00
12211;BME280;6168;42.658;23.298;2023-09-19T02:55:52;61378.59;;;-139.92;100.00
12211;BME280;6168;42.658;23.298;2023-09-19T02:58:19;61359.88;;;-139.92;100.00
12211;BME280;6168;42.658;23.298;2023-09-19T03:00:46;61380.69;;;-139.92;100.00
12211;BME280;6168;42.658;23.298;2023-09-19T03:03:15;61368.19;;;-139.92;100.00
12211;BME280;6168;42.658;23.298;2023-09-19T03:05:41;61391.09;;;-139.92;100.00
12211;BME280;6168;42.658;23.298;2023-09-19T03:08:12;61372.34;;;-139.92;100.00
12211;BME280;6168;42.658;23.298;2023-09-19T03:10:41;61389.00;;;-139.92;100.00
12211;BME280;6168;42.658;23.298;2023-09-19T03:13:08;61389.00;;;-139.92;100.00
12211;BME280;6168;42.658;23.298;2023-09-19T03:15:36;61401.47;;;-139.92;100.00
12211;BME280;6168;42.658;23.298;2023-09-19T03:18:04;61409.81;;;-139.92;100.00
12211;BME280;6168;42.658;23.298;2023-09-19T03:20:31;61382.75;;;-139.92;100.00
12211;BME280;6168;42.658;23.298;2023-09-19T03:22:57;61405.66;;;-139.92;100.00
12211;BME280;6168;42.658;23.298;2023-09-19T03:25:25;61405.66;;;-139.92;100.00
12211;BME280;6168;42.658;23.298;2023-09-19T03:27:57;61397.31;;;-139.92;100.00
12211;BME280;6168;42.658;23.298;2023-09-19T03:30:24;61409.81;;;-139.92;100.00
12211;BME280;6168;42.658;23.298;2023-09-19T03:32:51;61405.66;;;-139.92;100.00
12211;BME280;6168;42.658;23.298;2023-09-19T03:35:18;61376.50;;;-139.92;100.00
12211;BME280;6168;42.658;23.298;2023-09-19T03:37:45;61397.31;;;-139.92;100.00
12211;BME280;6168;42.658;23.298;2023-09-19T03:40:12;61411.88;;;-139.92;100.00
12211;BME280;6168;42.658;23.298;2023-09-19T03:42:39;61386.91;;;-139.92;100.00
12211;BME280;6168;42.658;23.298;2023-09-19T03:45:08;61409.81;;;-139.92;100.00
12211;BME280;6168;42.658;23.298;2023-09-19T03:47:37;61391.09;;;-139.92;100.00
12211;BME280;6168;42.658;23.298;2023-09-19T03:50:04;61424.38;;;-139.92;100.00
12211;BME280;6168;42.658;23.298;2023-09-19T03:52:31;61428.53;;;-139.92;100.00
12211;BME280;6168;42.658;23.298;2023-09-19T03:54:58;61393.16;;;-139.92;100.00
12211;BME280;6168;42.658;23.298;2023-09-19T03:57:24;61399.41;;;-139.92;100.00
12211;BME280;6168;42.658;23.298;2023-09-19T03:59:51;61405.66;;;-139.92;100.00
12211;BME280;6168;42.658;23.298;2023-09-19T04:02:19;61424.38;;;-139.92;100.00
12211;BME280;6168;42.658;23.298;2023-09-19T04:04:49;61401.47;;;-139.92;100.00
12211;BME280;6168;42.658;23.298;2023-09-19T04:07:16;61418.13;;;-139.92;100.00
12211;BME280;6168;42.658;23.298;2023-09-19T04:09:43;61411.88;;;-139.92;100.00
12211;BME280;6168;42.658;23.298;2023-09-19T04:12:09;61434.78;;;-139.92;100.00
12211;BME280;6168;42.658;23.298;2023-09-19T04:14:36;61407.72;;;-139.92;100.00
12211;BME280;6168;42.658;23.298;2023-09-19T04:17:03;61401.47;;;-139.92;100.00
12211;BME280;6168;42.658;23.298;2023-09-19T04:19:31;61405.66;;;-139.92;100.00
12211;BME280;6168;42.658;23.298;2023-09-19T04:21:58;61447.25;;;-139.92;100.00
12211;BME280;6168;42.658;23.298;2023-09-19T04:24:25;61401.47;;;-139.92;100.00
12211;BME280;6168;42.658;23.298;2023-09-19T04:26:51;61409.81;;;-139.92;100.00
12211;BME280;6168;42.658;23.298;2023-09-19T04:29:18;61397.31;;;-139.92;100.00
12211;BME280;6168;42.658;23.298;2023-09-19T04:31:45;61445.19;;;-139.92;100.00
12211;BME280;6168;42.658;23.298;2023-09-19T04:34:12;61411.88;;;-139.92;100.00
12211;BME280;6168;42.658;23.298;2023-09-19T04:36:41;61378.59;;;-139.92;100.00
12211;BME280;6168;42.658;23.298;2023-09-19T04:39:08;61405.66;;;-139.92;100.00
12211;BME280;6168;42.658;23.298;2023-09-19T04:41:36;61403.56;;;-139.92;100.00
12211;BME280;6168;42.658;23.298;2023-09-19T04:44:04;61376.50;;;-139.92;100.00
12211;BME280;6168;42.658;23.298;2023-09-19T04:46:31;61401.47;;;-139.92;100.00
12211;BME280;6168;42.658;23.298;2023-09-19T04:48:57;61401.47;;;-139.92;100.00
12211;BME280;6168;42.658;23.298;2023-09-19T04:51:24;61389.00;;;-139.92;100.00
12211;BME280;6168;42.658;23.298;2023-09-19T04:53:53;61382.75;;;-139.92;100.00
12211;BME280;6168;42.658;23.298;2023-09-19T04:56:20;61364.03;;;-139.92;100.00
12211;BME280;6168;42.658;23.298;2023-09-19T04:58:46;61351.56;;;-139.92;100.00
12211;BME280;6168;42.658;23.298;2023-09-19T05:01:13;61366.13;;;-139.92;100.00
12211;BME280;6168;42.658;23.298;2023-09-19T05:03:40;61364.03;;;-139.92;100.00
12211;BME280;6168;42.658;23.298;2023-09-19T05:06:07;61341.16;;;-139.92;100.00
12211;BME280;6168;42.658;23.298;2023-09-19T05:08:34;61337.00;;;-139.92;100.00
12211;BME280;6168;42.658;23.298;2023-09-19T05:11:02;61312.03;;;-139.92;100.00
12211;BME280;6168;42.658;23.298;2023-09-19T05:13:29;61328.66;;;-139.92;100.00
12211;BME280;6168;42.658;23.298;2023-09-19T05:15:59;61318.25;;;-139.92;100.00
12211;BME280;6168;42.658;23.298;2023-09-19T05:18:26;61307.84;;;-139.92;100.00
12211;BME280;6168;42.658;23.298;2023-09-19T05:20:53;61328.66;;;-139.92;100.00
12211;BME280;6168;42.658;23.298;2023-09-19T05:23:20;61297.47;;;-139.92;100.00
12211;BME280;6168;42.658;23.298;2023-09-19T05:25:46;61293.28;;;-139.92;100.00
12211;BME280;6168;42.658;23.298;2023-09-19T05:28:15;61260.00;;;-139.92;100.00
12211;BME280;6168;42.658;23.298;2023-09-19T05:30:41;61282.91;;;-139.92;100.00
12211;BME280;6168;42.658;23.298;2023-09-19T05:33:08;61274.56;;;-139.92;100.00
12211;BME280;6168;42.658;23.298;2023-09-19T05:35:35;61270.41;;;-139.92;100.00
12211;BME280;6168;42.658;23.298;2023-09-19T05:38:05;61276.66;;;-139.92;100.00
12211;BME280;6168;42.658;23.298;2023-09-19T05:40:34;61272.50;;;-139.92;100.00
12211;BME280;6168;42.658;23.298;2023-09-19T05:43:01;61260.00;;;-139.92;100.00
12211;BME280;6168;42.658;23.298;2023-09-19T05:45:30;61253.75;;;-139.92;100.00
12211;BME280;6168;42.658;23.298;2023-09-19T05:48:05;61251.69;;;-139.92;100.00
12211;BME280;6168;42.658;23.298;2023-09-19T05:50:33;61239.19;;;-139.92;100.00
12211;BME280;6168;42.658;23.298;2023-09-19T05:53:00;61266.25;;;-139.92;100.00
12211;BME280;6168;42.658;23.298;2023-09-19T05:55:26;61249.59;;;-139.92;100.00
12211;BME280;6168;42.658;23.298;2023-09-19T05:57:53;61239.19;;;-139.92;100.00
12211;BME280;6168;42.658;23.298;2023-09-19T06:00:20;61260.00;;;-139.92;100.00
12211;BME280;6168;42.658;23.298;2023-09-19T06:02:51;61249.59;;;-139.92;100.00
12211;BME280;6168;42.658;23.298;2023-09-19T06:05:18;61237.13;;;-139.92;100.00
12211;BME280;6168;42.658;23.298;2023-09-19T06:07:45;61232.97;;;-139.92;100.00
12211;BME280;6168;42.658;23.298;2023-09-19T06:10:12;61235.03;;;-139.92;100.00
12211;BME280;6168;42.658;23.298;2023-09-19T06:12:39;61230.88;;;-139.92;100.00
12211;BME280;6168;42.658;23.298;2023-09-19T06:15:08;61214.25;;;-139.92;100.00
12211;BME280;6168;42.658;23.298;2023-09-19T06:17:40;61199.69;;;-139.92;100.00
12211;BME280;6168;42.658;23.298;2023-09-19T06:20:08;61216.31;;;-139.92;100.00
12211;BME280;6168;42.658;23.298;2023-09-19T06:22:40;61222.56;;;-139.92;100.00
12211;BME280;6168;42.658;23.298;2023-09-19T06:25:08;61214.25;;;-139.92;100.00
12211;BME280;6168;42.658;23.298;2023-09-19T06:27:36;61201.75;;;-139.92;100.00
12211;BME280;6168;42.658;23.298;2023-09-19T06:30:03;61193.44;;;-139.92;100.00
12211;BME280;6168;42.658;23.298;2023-09-19T06:32:30;61195.50;;;-139.92;100.00
12211;BME280;6168;42.658;23.298;2023-09-19T06:34:56;61214.25;;;-139.92;100.00
12211;BME280;6168;42.658;23.298;2023-09-19T06:37:27;61174.72;;;-139.92;100.00
12211;BME280;6168;42.658;23.298;2023-09-19T06:39:54;61178.88;;;-139.92;100.00
12211;BME280;6168;42.658;23.298;2023-09-19T06:42:21;61176.78;;;-139.92;100.00
12211;BME280;6168;42.658;23.298;2023-09-19T06:44:48;61168.47;;;-139.92;100.00
12211;BME280;6168;42.658;23.298;2023-09-19T06:47:15;61180.94;;;-139.92;100.00
12211;BME280;6168;42.658;23.298;2023-09-19T06:49:42;61149.75;;;-139.92;100.00
12211;BME280;6168;42.658;23.298;2023-09-19T06:52:09;61151.81;;;-139.92;100.00
12211;BME280;6168;42.658;23.298;2023-09-19T06:54:37;61180.94;;;-139.92;100.00
12211;BME280;6168;42.658;23.298;2023-09-19T06:57:05;61176.78;;;-139.92;100.00
12211;BME280;6168;42.658;23.298;2023-09-19T06:59:34;61166.38;;;-139.92;100.00
12211;BME280;6168;42.658;23.298;2023-09-19T07:02:02;61141.44;;;-139.92;100.00
12211;BME280;6168;42.658;23.298;2023-09-19T07:04:31;61147.66;;;-139.92;100.00
12211;BME280;6168;42.658;23.298;2023-09-19T07:06:58;61178.88;;;-139.92;100.00
12211;BME280;6168;42.658;23.298;2023-09-19T07:09:24;61160.16;;;-139.92;100.00
12211;BME280;6168;42.658;23.298;2023-09-19T07:11:53;61156.00;;;-139.92;100.00
12211;BME280;6168;42.658;23.298;2023-09-19T07:14:20;61143.50;;;-139.92;100.00
12211;BME280;6168;42.658;23.298;2023-09-19T07:16:47;61120.63;;;-139.92;100.00
12211;BME280;6168;42.658;23.298;2023-09-19T07:19:15;61135.19;;;-139.92;100.00
12211;BME280;6168;42.658;23.298;2023-09-19T07:21:42;61133.09;;;-139.92;100.00
12211;BME280;6168;42.658;23.298;2023-09-19T07:24:09;61139.34;;;-139.92;100.00
12211;BME280;6168;42.658;23.298;2023-09-19T07:26:35;61131.03;;;-139.92;100.00
12211;BME280;6168;42.658;23.298;2023-09-19T07:29:03;61106.06;;;-139.92;100.00
12211;BME280;6168;42.658;23.298;2023-09-19T07:31:32;61099.81;;;-139.92;100.00
12211;BME280;6168;42.658;23.298;2023-09-19T07:33:58;61120.63;;;-139.92;100.00
12211;BME280;6168;42.658;23.298;2023-09-19T07:36:25;61108.13;;;-139.92;100.00
12211;BME280;6168;42.658;23.298;2023-09-19T07:38:54;61099.81;;;-139.92;100.00
12211;BME280;6168;42.658;23.298;2023-09-19T07:41:23;61116.47;;;-139.92;100.00
12211;BME280;6168;42.658;23.298;2023-09-19T07:43:50;61108.13;;;-139.92;100.00
12211;BME280;6168;42.658;23.298;2023-09-19T07:46:18;61091.50;;;-139.92;100.00
12211;BME280;6168;42.658;23.298;2023-09-19T07:48:46;61101.91;;;-139.92;100.00
12211;BME280;6168;42.658;23.298;2023-09-19T07:51:14;61114.38;;;-139.92;100.00
12211;BME280;6168;42.658;23.298;2023-09-19T07:53:41;61087.34;;;-139.92;100.00
12211;BME280;6168;42.658;23.298;2023-09-19T07:56:09;61093.56;;;-139.92;100.00
12211;BME280;6168;42.658;23.298;2023-09-19T07:58:36;61114.38;;;-139.92;100.00
12211;BME280;6168;42.658;23.298;2023-09-19T08:01:06;61079.00;;;-139.92;100.00
12211;BME280;6168;42.658;23.298;2023-09-19T08:03:34;61091.50;;;-139.92;100.00
12211;BME280;6168;42.658;23.298;2023-09-19T08:06:05;61089.41;;;-139.92;100.00
12211;BME280;6168;42.658;23.298;2023-09-19T08:08:32;61089.41;;;-139.92;100.00
12211;BME280;6168;42.658;23.298;2023-09-19T08:11:02;61093.56;;;-139.92;100.00
12211;BME280;6168;42.658;23.298;2023-09-19T08:13:35;61101.91;;;-139.92;100.00
12211;BME280;6168;42.658;23.298;2023-09-19T08:16:03;61095.66;;;-139.92;100.00
12211;BME280;6168;42.658;23.298;2023-09-19T08:18:29;61089.41;;;-139.92;100.00
12211;BME280;6168;42.658;23.298;2023-09-19T08:20:57;61093.56;;;-139.92;100.00
12211;BME280;6168;42.658;23.298;2023-09-19T08:23:25;61085.25;;;-139.92;100.00
12211;BME280;6168;42.658;23.298;2023-09-19T08:25:55;61076.94;;;-139.92;100.00
12211;BME280;6168;42.658;23.298;2023-09-19T08:28:22;61060.28;;;-139.92;100.00
12211;BME280;6168;42.658;23.298;2023-09-19T08:30:49;61056.13;;;-139.92;100.00
12211;BME280;6168;42.658;23.298;2023-09-19T08:33:16;61076.94;;;-139.92;100.00
12211;BME280;6168;42.658;23.298;2023-09-19T08:35:43;61068.59;;;-139.92;100.00
12211;BME280;6168;42.658;23.298;2023-09-19T08:38:12;61060.28;;;-139.92;100.00
12211;BME280;6168;42.658;23.298;2023-09-19T08:40:39;61051.97;;;-139.92;100.00
12211;BME280;6168;42.658;23.298;2023-09-19T08:43:07;61020.75;;;-139.92;100.00
12211;BME280;6168;42.658;23.298;2023-09-19T08:45:34;61031.16;;;-139.92;100.00
12211;BME280;6168;42.658;23.298;2023-09-19T08:48:05;61051.97;;;-139.92;100.00
12211;BME280;6168;42.658;23.298;2023-09-19T08:50:39;61039.50;;;-139.92;100.00
12211;BME280;6168;42.658;23.298;2023-09-19T08:53:10;61027.00;;;-139.92;100.00
12211;BME280;6168;42.658;23.298;2023-09-19T08:55:38;61027.00;;;-139.92;100.00
12211;BME280;6168;42.658;23.298;2023-09-19T08:58:08;61004.13;;;-139.92;100.00
12211;BME280;6168;42.658;23.298;2023-09-19T09:00:38;61022.84;;;-139.92;100.00
12211;BME280;6168;42.658;23.298;2023-09-19T09:03:07;61014.53;;;-139.92;100.00
12211;BME280;6168;42.658;23.298;2023-09-19T09:05:35;61006.19;;;-139.92;100.00
12211;BME280;6168;42.658;23.298;2023-09-19T09:08:05;61037.41;;;-139.92;100.00
12211;BME280;6168;42.658;23.298;2023-09-19T09:10:32;60995.81;;;-139.92;100.00
12211;BME280;6168;42.658;23.298;2023-09-19T09:13:00;61006.19;;;-139.92;100.00
12211;BME280;6168;42.658;23.298;2023-09-19T09:15:28;61002.03;;;-139.92;100.00
12211;BME280;6168;42.658;23.298;2023-09-19T09:17:55;60997.88;;;-139.92;100.00
12211;BME280;6168;42.658;23.298;2023-09-19T09:20:23;61006.19;;;-139.92;100.00
12211;BME280;6168;42.658;23.298;2023-09-19T09:22:53;61004.13;;;-139.92;100.00
12211;BME280;6168;42.658;23.298;2023-09-19T09:25:20;60999.97;;;-139.92;100.00
12211;BME280;6168;42.658;23.298;2023-09-19T09:27:48;61002.03;;;-139.92;100.00
12211;BME280;6168;42.658;23.298;2023-09-19T09:30:34;60954.19;;;-139.92;100.00
12211;BME280;6168;42.658;23.298;2023-09-19T09:33:08;60987.47;;;-139.92;100.00
12211;BME280;6168;42.658;23.298;2023-09-19T09:35:36;60981.25;;;-139.92;100.00
12211;BME280;6168;42.658;23.298;2023-09-19T09:38:04;60993.72;;;-139.92;100.00
12211;BME280;6168;42.658;23.298;2023-09-19T09:40:45;60989.56;;;-139.92;97.87
12211;BME280;6168;42.658;23.298;2023-09-19T09:43:24;60991.63;;;-139.92;97.50
12211;BME280;6168;42.658;23.298;2023-09-19T09:46:01;60977.06;;;-139.92;100.00
12211;BME280;6168;42.658;23.298;2023-09-19T09:48:44;60981.25;;;-139.92;93.31
12211;BME280;6168;42.658;23.298;2023-09-19T09:51:17;60964.59;;;-139.92;92.69
12211;BME280;6168;42.658;23.298;2023-09-19T09:53:56;60964.59;;;-139.92;92.20
12211;BME280;6168;42.658;23.298;2023-09-19T09:56:41;60968.75;;;-139.92;94.63
12211;BME280;6168;42.658;23.298;2023-09-19T09:59:18;60958.34;;;-139.92;88.01
12211;BME280;6168;42.658;23.298;2023-09-19T10:01:50;60952.13;;;-139.92;88.09
12211;BME280;6168;42.658;23.298;2023-09-19T10:04:26;60960.44;;;-139.92;89.39
12211;BME280;6168;42.658;23.298;2023-09-19T10:06:54;60933.38;;;-139.92;86.85
12211;BME280;6168;42.658;23.298;2023-09-19T10:09:21;60945.88;;;-139.92;84.99
12211;BME280;6168;42.658;23.298;2023-09-19T10:12:00;60929.22;;;-139.92;85.42
12211;BME280;6168;42.658;23.298;2023-09-19T10:14:30;60945.88;;;-139.92;86.85
12211;BME280;6168;42.658;23.298;2023-09-19T10:16:59;60931.31;;;-139.92;87.70
12211;BME280;6168;42.658;23.298;2023-09-19T10:19:29;60943.78;;;-139.92;83.39
12211;BME280;6168;42.658;23.298;2023-09-19T10:21:58;60929.22;;;-139.92;81.56
12211;BME280;6168;42.658;23.298;2023-09-19T10:24:26;60914.66;;;-139.92;82.32
12211;BME280;6168;42.658;23.298;2023-09-19T10:26:56;60914.66;;;-139.92;80.11
12211;BME280;6168;42.658;23.298;2023-09-19T10:29:25;60918.84;;;-139.92;81.75
12211;BME280;6168;42.658;23.298;2023-09-19T10:31:56;60925.06;;;-139.92;81.48
12211;BME280;6168;42.658;23.298;2023-09-19T10:34:26;60927.16;;;-139.92;79.59
12211;BME280;6168;42.658;23.298;2023-09-19T10:36:53;60929.22;;;-139.92;81.56
12211;BME280;6168;42.658;23.298;2023-09-19T10:39:20;60914.66;;;-139.92;79.04
12211;BME280;6168;42.658;23.298;2023-09-19T10:41:49;60918.84;;;-139.92;79.83
12211;BME280;6168;42.658;23.298;2023-09-19T10:44:19;60904.28;;;-139.92;78.01
12211;BME280;6168;42.658;23.298;2023-09-19T10:46:48;60929.22;;;-139.92;77.26
12211;BME280;6168;42.658;23.298;2023-09-19T10:49:17;60900.09;;;-139.92;78.59
12211;BME280;6168;42.658;23.298;2023-09-19T10:51:46;60925.06;;;-139.92;78.02
12211;BME280;6168;42.658;23.298;2023-09-19T10:54:15;60914.66;;;-139.92;78.02
12211;BME280;6168;42.658;23.298;2023-09-19T10:56:43;60920.91;;;-139.92;78.20
12211;BME280;6168;42.658;23.298;2023-09-19T10:59:13;60891.78;;;-139.92;74.89
12211;BME280;6168;42.658;23.298;2023-09-19T11:01:43;60908.44;;;-139.92;76.13
12211;BME280;6168;42.658;23.298;2023-09-19T11:04:22;60908.44;;;-139.92;76.28
12211;BME280;6168;42.658;23.298;2023-09-19T11:07:00;60906.34;;;-139.92;77.42
12211;BME280;6168;42.658;23.298;2023-09-19T11:09:42;60889.72;;;-139.92;76.98
12211;BME280;6168;42.658;23.298;2023-09-19T11:12:11;60889.72;;;-139.92;76.97
12211;BME280;6168;42.658;23.298;2023-09-19T11:14:41;60898.03;;;-139.92;75.01
12211;BME280;6168;42.658;23.298;2023-09-19T11:20:19;60889.72;;;-139.92;74.69
12211;BME280;6168;42.658;23.298;2023-09-19T11:25:43;60906.34;;;-139.92;74.37
12211;BME280;6168;42.658;23.298;2023-09-19T11:28:29;60914.66;;;-139.92;75.17
12211;BME280;6168;42.658;23.298;2023-09-19T11:30:56;60902.19;;;-139.92;77.43
12211;BME280;6168;42.658;23.298;2023-09-19T11:33:24;60881.38;;;-139.92;75.10
12211;BME280;6168;42.658;23.298;2023-09-19T11:36:03;60881.38;;;-139.92;74.39
12211;BME280;6168;42.658;23.298;2023-09-19T11:46:55;60873.06;;;-139.92;72.90
12211;BME280;6168;42.658;23.298;2023-09-19T11:49:26;60877.22;;;-139.92;72.31
12211;BME280;6168;42.658;23.298;2023-09-19T11:51:55;60870.97;;;-139.92;71.17
12211;BME280;6168;42.658;23.298;2023-09-19T11:54:22;60881.38;;;-139.92;71.55
12211;BME280;6168;42.658;23.298;2023-09-19T11:56:53;60898.03;;;-139.92;71.03
12211;BME280;6168;42.658;23.298;2023-09-19T11:59:20;60885.53;;;-139.92;74.96
12211;BME280;6168;42.658;23.298;2023-09-19T12:01:50;60893.88;;;-139.92;72.40
12211;BME280;6168;42.658;23.298;2023-09-19T12:04:21;60889.72;;;-139.92;70.50
12211;BME280;6168;42.658;23.298;2023-09-19T12:07:03;60881.38;;;-139.92;69.97
12211;BME280;6168;42.658;23.298;2023-09-19T12:09:29;60875.16;;;-139.92;72.01
12211;BME280;6168;42.658;23.298;2023-09-19T12:11:56;60877.22;;;-139.92;70.21
12211;BME280;6168;42.658;23.298;2023-09-19T12:14:23;60895.94;;;-139.92;69.70
12211;BME280;6168;42.658;23.298;2023-09-19T12:16:51;60895.94;;;-139.92;71.52
12211;BME280;6168;42.658;23.298;2023-09-19T12:19:22;60881.38;;;-139.92;70.66
12211;BME280;6168;42.658;23.298;2023-09-19T12:21:58;60885.53;;;-139.92;70.68
12211;BME280;6168;42.658;23.298;2023-09-19T12:24:30;60870.97;;;-139.92;69.30
12211;BME280;6168;42.658;23.298;2023-09-19T12:26:59;60860.59;;;-139.92;67.99
12211;BME280;6168;42.658;23.298;2023-09-19T12:29:29;60856.41;;;-139.92;65.66
12211;BME280;6168;42.658;23.298;2023-09-19T12:31:56;60860.59;;;-139.92;66.40
12211;BME280;6168;42.658;23.298;2023-09-19T12:34:26;60854.34;;;-139.92;67.36
12211;BME280;6168;42.658;23.298;2023-09-19T12:37:05;60848.09;;;-139.92;68.20
12211;BME280;6168;42.658;23.298;2023-09-19T12:39:37;60841.88;;;-139.92;66.74
12211;BME280;6168;42.658;23.298;2023-09-19T12:42:03;60856.41;;;-139.92;68.55
12211;BME280;6168;42.658;23.298;2023-09-19T12:44:34;60839.78;;;-139.92;65.78
12211;BME280;6168;42.658;23.298;2023-09-19T12:47:07;60814.81;;;-139.92;67.48
12211;BME280;6168;42.658;23.298;2023-09-19T12:49:35;60843.94;;;-139.92;65.30
12211;BME280;6168;42.658;23.298;2023-09-19T12:52:02;60833.53;;;-139.92;65.47
12211;BME280;6168;42.658;23.298;2023-09-19T12:54:37;60821.06;;;-139.92;67.16
12211;BME280;6168;42.658;23.298;2023-09-19T12:57:05;60814.81;;;-139.92;66.08
12211;BME280;6168;42.658;23.298;2023-09-19T12:59:31;60810.66;;;-139.92;65.13